createdAt,value
2023-09-06T00:02:00.200Z,101474.31
2023-09-06T00:04:27.074Z,101479.91
2023-09-06T00:07:02.367Z,101475.66
2023-09-06T00:09:29.680Z,101485.50
2023-09-06T00:12:02.972Z,101474.97
2023-09-06T00:14:30.686Z,101478.00
2023-09-06T00:17:02.988Z,101485.16
2023-09-06T00:19:30.545Z,101479.19
2023-09-06T00:22:00.267Z,101476.66
2023-09-06T00:24:27.115Z,101475.78
2023-09-06T00:26:55.950Z,101483.94
2023-09-06T00:29:27.885Z,101473.41
2023-09-06T00:32:01.815Z,101475.97
2023-09-06T00:34:31.549Z,101485.31
2023-09-06T00:37:02.008Z,101480.03
2023-09-06T00:39:31.420Z,101485.81
2023-09-06T00:42:03.668Z,101485.81
2023-09-06T00:44:32.790Z,101483.09
2023-09-06T00:47:03.000Z,101477.47
2023-09-06T00:49:30.414Z,101481.41
2023-09-06T00:51:57.348Z,101481.41
2023-09-06T00:54:24.162Z,101481.22
2023-09-06T00:56:54.189Z,101473.41
2023-09-06T00:59:25.158Z,101477.84
2023-09-06T01:01:52.048Z,101488.53
2023-09-06T01:04:26.385Z,101485.81
2023-09-06T01:07:06.111Z,101484.81
2023-09-06T01:09:33.179Z,101486.66
2023-09-06T01:12:02.832Z,101486.00
2023-09-06T01:14:31.773Z,101480.72
2023-09-06T01:16:59.507Z,101488.03
2023-09-06T01:19:34.151Z,101484.44
2023-09-06T01:22:32.286Z,101482.59
2023-09-06T01:24:59.517Z,101479.19
2023-09-06T01:27:27.119Z,101479.00
2023-09-06T01:29:54.056Z,101477.16
2023-09-06T01:32:26.486Z,101479.19
2023-09-06T01:34:53.535Z,101480.88
2023-09-06T01:37:25.375Z,101478.31
2023-09-06T01:39:52.352Z,101482.22
2023-09-06T01:42:25.714Z,101479.69
2023-09-06T01:44:55.044Z,101475.25
2023-09-06T01:47:26.657Z,101477.97
2023-09-06T01:49:53.311Z,101473.38
2023-09-06T01:52:21.888Z,101462.16
2023-09-06T01:54:51.492Z,101467.59
2023-09-06T01:57:22.365Z,101465.03
2023-09-06T01:59:51.803Z,101461.81
2023-09-06T02:02:18.712Z,101471.66
2023-09-06T02:04:45.426Z,101466.41
2023-09-06T02:07:12.144Z,101456.53
2023-09-06T02:09:38.841Z,101464.69
2023-09-06T02:12:06.626Z,101469.13
2023-09-06T02:14:33.325Z,101461.13
2023-09-06T02:17:00.231Z,101466.56
2023-09-06T02:19:27.179Z,101462.16
2023-09-06T02:21:53.959Z,101462.16
2023-09-06T02:24:20.868Z,101461.78
2023-09-06T02:26:47.663Z,101467.75
2023-09-06T02:29:14.284Z,101465.03
2023-09-06T02:31:41.071Z,101465.88
2023-09-06T02:34:08.015Z,101467.59
2023-09-06T02:36:34.715Z,101460.78
2023-09-06T02:39:02.843Z,101467.41
2023-09-06T02:41:31.040Z,101468.06
2023-09-06T02:43:57.755Z,101463.81
2023-09-06T02:46:30.395Z,101470.25
2023-09-06T02:48:59.756Z,101477.38
2023-09-06T02:51:32.359Z,101473.13
2023-09-06T02:53:59.585Z,101472.25
2023-09-06T02:56:28.219Z,101471.41
2023-09-06T02:58:54.878Z,101484.84
2023-09-06T03:01:21.997Z,101481.44
2023-09-06T03:03:55.147Z,101485.84
2023-09-06T03:06:34.374Z,101490.59
2023-09-06T03:09:01.810Z,101484.16
2023-09-06T03:11:31.885Z,101482.78
2023-09-06T03:13:59.133Z,101487.38
2023-09-06T03:16:26.162Z,101482.94
2023-09-06T03:18:56.115Z,101488.56
2023-09-06T03:21:22.868Z,101483.44
2023-09-06T03:23:50.184Z,101487.69
2023-09-06T03:26:16.867Z,101490.59
2023-09-06T03:28:59.413Z,101485.63
2023-09-06T03:31:27.369Z,101488.34
2023-09-06T03:33:57.320Z,101486.59
2023-09-06T03:36:28.153Z,101485.91
2023-09-06T03:38:57.926Z,101481.66
2023-09-06T03:41:24.649Z,101485.41
2023-09-06T03:43:57.330Z,101483.19
2023-09-06T03:46:30.074Z,101481.84
2023-09-06T03:49:02.005Z,101477.41
2023-09-06T03:51:28.761Z,101482.00
2023-09-06T03:54:00.099Z,101477.75
2023-09-06T03:56:29.085Z,101481.44
2023-09-06T03:59:01.817Z,101484.34
2023-09-06T04:01:28.809Z,101476.69
2023-09-06T04:04:08.905Z,101482.47
2023-09-06T04:06:38.939Z,101484.16
2023-09-06T04:09:08.146Z,101483.16
2023-09-06T04:11:37.839Z,101484.56
2023-09-06T04:14:04.834Z,101487.78
2023-09-06T04:16:41.405Z,101487.47
2023-09-06T04:19:08.232Z,101473.91
2023-09-06T04:21:41.591Z,101483.28
2023-09-06T04:24:18.225Z,101487.88
2023-09-06T04:26:44.996Z,101475.66
2023-09-06T04:29:19.243Z,101488.56
2023-09-06T04:31:45.988Z,101488.41
2023-09-06T04:34:19.345Z,101495.22
2023-09-06T04:36:46.071Z,101490.31
2023-09-06T04:39:14.915Z,101491.19
2023-09-06T04:41:41.631Z,101493.72
2023-09-06T04:44:08.576Z,101491.00
2023-09-06T04:46:37.740Z,101502.56
2023-09-06T04:49:04.950Z,101498.31
2023-09-06T04:51:31.784Z,101503.41
2023-09-06T04:54:01.835Z,101496.97
2023-09-06T04:56:32.285Z,101500.38
2023-09-06T04:59:02.130Z,101500.56
2023-09-06T05:01:29.262Z,101487.28
2023-09-06T05:03:59.665Z,101485.44
2023-09-06T05:06:29.290Z,101492.41
2023-09-06T05:08:58.495Z,101490.88
2023-09-06T05:11:25.241Z,101495.81
2023-09-06T05:14:02.384Z,101497.38
2023-09-06T05:16:34.664Z,101489.56
2023-09-06T05:19:09.564Z,101503.72
2023-09-06T05:21:36.469Z,101499.63
2023-09-06T05:24:03.760Z,101519.72
2023-09-06T05:26:30.463Z,101516.84
2023-09-06T05:29:08.032Z,101508.34
2023-09-06T05:31:34.863Z,101514.00
2023-09-06T05:34:08.235Z,101505.50
2023-09-06T05:36:35.987Z,101511.28
2023-09-06T05:39:09.731Z,101509.38
2023-09-06T05:41:36.591Z,101519.06
2023-09-06T05:44:06.022Z,101517.47
2023-09-06T05:46:34.312Z,101523.84
2023-09-06T05:49:01.248Z,101534.69
2023-09-06T05:51:27.977Z,101529.28
2023-09-06T05:53:54.750Z,101540.00
2023-09-06T05:56:21.608Z,101544.09
2023-09-06T05:58:51.658Z,101546.59
2023-09-06T06:01:20.853Z,101534.19
2023-09-06T06:03:49.086Z,101534.31
2023-09-06T06:06:22.187Z,101531.13
2023-09-06T06:08:51.649Z,101537.19
2023-09-06T06:11:21.053Z,101557.28
2023-09-06T06:13:56.346Z,101554.19
2023-09-06T06:16:27.621Z,101560.50
2023-09-06T06:18:54.422Z,101566.69
2023-09-06T06:21:29.709Z,101572.63
2023-09-06T06:23:57.265Z,101572.06
2023-09-06T06:26:33.842Z,101574.09
2023-09-06T06:29:04.392Z,101576.34
2023-09-06T06:31:31.504Z,101567.06
2023-09-06T06:34:02.786Z,101584.22
2023-09-06T06:36:32.799Z,101582.63
2023-09-06T06:39:00.061Z,101586.16
2023-09-06T06:41:39.985Z,101587.16
2023-09-06T06:44:06.834Z,101591.50
2023-09-06T06:46:40.030Z,101603.81
2023-09-06T06:49:10.444Z,101600.94
2023-09-06T06:51:41.090Z,101600.84
2023-09-06T06:54:51.134Z,101605.13
2023-09-06T06:57:08.275Z,101609.13
2023-09-06T06:59:37.537Z,101606.00
2023-09-06T07:02:18.268Z,101610.00
2023-09-06T07:04:48.585Z,101613.41
2023-09-06T07:07:15.635Z,101600.88
2023-09-06T07:09:42.527Z,101606.41
2023-09-06T07:12:09.676Z,101617.72
2023-09-06T07:14:36.589Z,101606.69
2023-09-06T07:17:11.223Z,101607.13
2023-09-06T07:19:38.113Z,101621.88
2023-09-06T07:22:07.948Z,101614.84
2023-09-06T07:24:34.633Z,101631.81
2023-09-06T07:27:01.463Z,101626.38
2023-09-06T07:29:28.380Z,101628.03
2023-09-06T07:31:55.187Z,101638.75
2023-09-06T07:34:22.125Z,101630.81
2023-09-06T07:36:49.001Z,101632.41
2023-09-06T07:39:15.919Z,101642.13
2023-09-06T07:41:42.934Z,101640.00
2023-09-06T07:44:11.002Z,101643.13
2023-09-06T07:46:37.915Z,101636.63
2023-09-06T07:49:07.560Z,101644.47
2023-09-06T07:51:42.435Z,101633.75
2023-09-06T07:54:11.819Z,101647.16
2023-09-06T07:56:40.513Z,101646.84
2023-09-06T07:59:13.961Z,101647.03
2023-09-06T08:01:41.433Z,101646.84
2023-09-06T08:04:12.489Z,101659.47
2023-09-06T08:06:42.169Z,101653.94
2023-09-06T08:09:17.296Z,101656.56
2023-09-06T08:11:44.262Z,101641.66
2023-09-06T08:14:11.058Z,101653.03
2023-09-06T08:16:37.872Z,101656.72
2023-09-06T08:19:04.708Z,101664.63
2023-09-06T08:21:32.053Z,101653.91
2023-09-06T08:23:59.008Z,101651.84
2023-09-06T08:26:26.205Z,101646.94
2023-09-06T08:28:53.084Z,101657.06
2023-09-06T08:31:19.995Z,101667.41
2023-09-06T08:33:47.443Z,101667.63
2023-09-06T08:36:14.280Z,101672.25
2023-09-06T08:38:41.171Z,101677.19
2023-09-06T08:41:16.676Z,101682.00
2023-09-06T08:43:47.672Z,101666.00
2023-09-06T08:46:42.871Z,101677.47
2023-09-06T08:49:12.598Z,101678.81
2023-09-06T08:51:43.490Z,101673.34
2023-09-06T08:54:15.669Z,101683.16
2023-09-06T08:57:15.749Z,101671.47
2023-09-06T08:59:51.680Z,101686.41
2023-09-06T09:02:21.397Z,101668.13
2023-09-06T09:05:02.925Z,101674.66
2023-09-06T09:07:40.364Z,101669.94
2023-09-06T09:10:17.513Z,101670.97
2023-09-06T09:12:48.308Z,101676.66
2023-09-06T09:15:23.456Z,101672.88
2023-09-06T09:18:01.387Z,101673.16
2023-09-06T09:20:37.747Z,101689.03
2023-09-06T09:23:04.851Z,101672.72
2023-09-06T09:26:19.170Z,101681.28
2023-09-06T09:28:45.972Z,101671.69
2023-09-06T09:31:22.597Z,101684.94
2023-09-06T09:34:02.189Z,101682.31
2023-09-06T09:36:35.447Z,101664.63
2023-09-06T09:39:16.553Z,101665.50
2023-09-06T09:41:57.442Z,101670.75
2023-09-06T09:44:31.263Z,101664.53
2023-09-06T09:47:38.338Z,101671.19
2023-09-06T09:50:04.142Z,101682.22
2023-09-06T09:52:39.439Z,101681.53
2023-09-06T09:55:20.802Z,101660.84
2023-09-06T09:57:47.768Z,101676.94
2023-09-06T10:00:48.941Z,101675.78
2023-09-06T10:03:29.574Z,101663.78
2023-09-06T10:06:18.197Z,101669.34
2023-09-06T10:08:53.643Z,101659.53
2023-09-06T10:11:25.264Z,101654.16
2023-09-06T10:14:06.526Z,101650.16
2023-09-06T10:16:39.927Z,101655.09
2023-09-06T10:19:09.698Z,101660.16
2023-09-06T10:21:46.003Z,101652.53
2023-09-06T10:24:26.705Z,101644.09
2023-09-06T10:27:00.732Z,101646.56
2023-09-06T10:29:32.195Z,101659.44
2023-09-06T10:32:08.729Z,101647.16
2023-09-06T10:34:37.430Z,101670.25
2023-09-06T10:37:07.503Z,101652.22
2023-09-06T10:39:34.277Z,101660.84
2023-09-06T10:42:09.975Z,101673.66
2023-09-06T10:44:55.003Z,101668.78
2023-09-06T10:47:49.358Z,101663.22
2023-09-06T10:50:26.132Z,101673.22
2023-09-06T10:53:03.469Z,101676.25
2023-09-06T10:55:48.948Z,101676.00
2023-09-06T10:58:29.045Z,101666.19
2023-09-06T11:01:21.858Z,101666.47
2023-09-06T11:04:02.944Z,101664.09
2023-09-06T11:06:29.674Z,101664.75
2023-09-06T11:09:08.595Z,101671.72
2023-09-06T11:11:44.624Z,101669.34
2023-09-06T11:14:11.571Z,101668.63
2023-09-06T11:16:48.198Z,101674.34
2023-09-06T11:19:43.859Z,101672.41
2023-09-06T11:22:12.482Z,101669.56
2023-09-06T11:24:42.368Z,101655.91
2023-09-06T11:27:41.774Z,101655.78
2023-09-06T11:30:18.503Z,101667.03
2023-09-06T11:32:52.865Z,101670.81
2023-09-06T11:35:57.435Z,101665.78
2023-09-06T11:38:36.325Z,101667.16
2023-09-06T11:41:12.908Z,101663.00
2023-09-06T11:43:49.325Z,101672.06
2023-09-06T11:46:38.766Z,101650.03
2023-09-06T11:49:07.993Z,101665.69
2023-09-06T11:51:34.980Z,101651.00
2023-09-06T11:54:11.076Z,101665.00
2023-09-06T11:56:45.769Z,101655.28
2023-09-06T11:59:18.197Z,101645.84
2023-09-06T12:01:46.179Z,101658.28
2023-09-06T12:04:19.925Z,101655.28
2023-09-06T12:06:48.541Z,101660.31
2023-09-06T12:09:19.269Z,101657.19
2023-09-06T12:11:46.732Z,101650.00
2023-09-06T12:14:23.192Z,101646.91
2023-09-06T12:16:49.948Z,101656.59
2023-09-06T12:19:35.083Z,101650.69
2023-09-06T12:22:10.058Z,101652.22
2023-09-06T12:24:37.069Z,101642.28
2023-09-06T12:27:07.698Z,101650.63
2023-09-06T12:29:34.762Z,101657.47
2023-09-06T12:32:01.589Z,101652.69
2023-09-06T12:34:32.461Z,101652.41
2023-09-06T12:36:59.154Z,101648.19
2023-09-06T12:39:25.895Z,101645.97
2023-09-06T12:41:53.067Z,101642.63
2023-09-06T12:44:26.154Z,101641.56
2023-09-06T12:47:01.631Z,101641.31
2023-09-06T12:49:41.226Z,101642.50
2023-09-06T12:52:14.761Z,101631.34
2023-09-06T12:54:48.015Z,101632.13
2023-09-06T12:57:15.384Z,101637.13
2023-09-06T12:59:42.408Z,101619.16
2023-09-06T13:02:13.302Z,101619.88
2023-09-06T13:04:40.364Z,101636.38
2023-09-06T13:07:10.077Z,101622.94
2023-09-06T13:09:36.772Z,101642.94
2023-09-06T13:12:08.620Z,101631.66
2023-09-06T13:14:35.748Z,101635.81
2023-09-06T13:17:02.585Z,101633.22
2023-09-06T13:19:48.047Z,101638.38
2023-09-06T13:22:14.744Z,101635.09
2023-09-06T13:24:47.673Z,101626.75
2023-09-06T13:27:14.442Z,101628.56
2023-09-06T13:29:41.209Z,101628.72
2023-09-06T13:32:16.815Z,101625.94
2023-09-06T13:34:43.652Z,101629.72
2023-09-06T13:37:13.176Z,101628.16
2023-09-06T13:39:39.806Z,101626.44
2023-09-06T13:42:06.624Z,101624.75
2023-09-06T13:44:37.070Z,101625.09
2023-09-06T13:47:06.221Z,101616.22
2023-09-06T13:49:33.761Z,101612.91
2023-09-06T13:52:00.716Z,101611.53
2023-09-06T13:54:30.906Z,101619.16
2023-09-06T13:56:57.705Z,101613.91
2023-09-06T13:59:24.609Z,101615.94
2023-09-06T14:01:56.876Z,101612.25
2023-09-06T14:04:27.267Z,101620.50
2023-09-06T14:06:55.546Z,101616.00
2023-09-06T14:09:25.527Z,101597.25
2023-09-06T14:11:56.554Z,101600.09
2023-09-06T14:14:29.312Z,101605.56
2023-09-06T14:16:57.477Z,101612.97
2023-09-06T14:19:29.379Z,101601.16
2023-09-06T14:21:57.091Z,101593.81
2023-09-06T14:24:39.767Z,101592.56
2023-09-06T14:27:06.740Z,101587.72
2023-09-06T14:29:36.604Z,101589.28
2023-09-06T14:32:03.721Z,101597.91
2023-09-06T14:34:41.953Z,101594.53
2023-09-06T14:37:08.724Z,101585.59
2023-09-06T14:39:35.448Z,101597.50
2023-09-06T14:42:02.345Z,101602.72
2023-09-06T14:44:29.528Z,101593.63
2023-09-06T14:46:56.381Z,101594.19
2023-09-06T14:49:28.879Z,101601.66
2023-09-06T14:51:59.768Z,101594.91
2023-09-06T14:54:34.593Z,101594.59
2023-09-06T14:57:01.265Z,101584.78
2023-09-06T14:59:28.051Z,101587.94
2023-09-06T15:01:54.894Z,101595.59
2023-09-06T15:04:21.849Z,101596.94
2023-09-06T15:06:59.442Z,101591.91
2023-09-06T15:09:27.877Z,101590.59
2023-09-06T15:12:03.016Z,101593.91
2023-09-06T15:14:30.228Z,101593.56
2023-09-06T15:16:59.771Z,101599.53
2023-09-06T15:19:26.860Z,101588.78
2023-09-06T15:21:56.046Z,101593.13
2023-09-06T15:24:23.053Z,101593.56
2023-09-06T15:26:49.805Z,101596.81
2023-09-06T15:29:27.992Z,101594.72
2023-09-06T15:32:07.520Z,101604.22
2023-09-06T15:34:49.947Z,101594.94
2023-09-06T15:38:08.674Z,101604.00
2023-09-06T15:40:41.818Z,101602.34
2023-09-06T15:43:11.659Z,101602.91
2023-09-06T15:45:39.512Z,101585.16
2023-09-06T15:48:09.244Z,101586.88
2023-09-06T15:50:36.192Z,101590.16
2023-09-06T15:58:28.717Z,101590.06
2023-09-06T16:01:04.182Z,101596.47
2023-09-06T16:03:34.719Z,101589.50
2023-09-06T16:06:07.695Z,101580.72
2023-09-06T16:08:34.598Z,101597.75
2023-09-06T16:11:09.164Z,101590.03
2023-09-06T16:13:41.906Z,101584.00
2023-09-06T16:16:08.680Z,101585.56
2023-09-06T16:18:38.185Z,101595.50
2023-09-06T16:21:11.156Z,101576.72
2023-09-06T16:23:37.882Z,101590.41
2023-09-06T16:26:13.973Z,101595.16
2023-09-06T16:28:43.755Z,101589.00
2023-09-06T16:31:15.834Z,101594.47
2023-09-06T16:33:42.885Z,101574.31
2023-09-06T16:36:09.877Z,101579.16
2023-09-06T16:38:37.148Z,101598.72
2023-09-06T16:41:15.734Z,101590.81
2023-09-06T16:43:44.411Z,101591.66
2023-09-06T16:46:11.196Z,101594.78
2023-09-06T16:48:40.157Z,101605.34
2023-09-06T16:51:07.488Z,101600.59
2023-09-06T16:53:34.704Z,101597.72
2023-09-06T16:56:18.133Z,101602.13
2023-09-06T16:58:44.898Z,101609.88
2023-09-06T17:01:11.696Z,101605.25
2023-09-06T17:03:41.785Z,101611.03
2023-09-06T17:06:08.596Z,101617.63
2023-09-06T17:08:38.280Z,101609.38
2023-09-06T17:11:06.522Z,101606.50
2023-09-06T17:13:34.626Z,101605.91
2023-09-06T17:16:07.465Z,101595.97
2023-09-06T17:18:34.540Z,101619.09
2023-09-06T17:21:09.033Z,101613.63
2023-09-06T17:23:35.729Z,101617.25
2023-09-06T17:26:08.215Z,101612.84
2023-09-06T17:28:40.758Z,101622.16
2023-09-06T17:31:07.477Z,101601.03
2023-09-06T17:33:34.228Z,101619.00
2023-09-06T17:36:08.931Z,101616.72
2023-09-06T17:38:38.541Z,101615.44
2023-09-06T17:41:10.144Z,101621.16
2023-09-06T17:43:37.612Z,101611.88
2023-09-06T17:46:12.642Z,101619.91
2023-09-06T17:48:41.677Z,101598.50
2023-09-06T17:51:17.948Z,101601.25
2023-09-06T17:53:45.401Z,101600.59
2023-09-06T17:56:21.351Z,101610.97
2023-09-06T17:58:57.816Z,101600.56
2023-09-06T18:01:35.308Z,101621.72
2023-09-06T18:04:14.200Z,101609.41
2023-09-06T18:06:43.059Z,101615.75
2023-09-06T18:09:12.778Z,101615.31
2023-09-06T18:11:43.103Z,101623.56
2023-09-06T18:14:12.558Z,101635.16
2023-09-06T18:16:45.989Z,101639.75
2023-09-06T18:19:12.965Z,101639.53
2023-09-06T18:21:49.131Z,101633.78
2023-09-06T18:24:15.969Z,101636.50
2023-09-06T18:26:58.071Z,101641.31
2023-09-06T18:29:37.702Z,101625.84
2023-09-06T18:32:13.811Z,101622.41
2023-09-06T18:34:43.953Z,101622.16
2023-09-06T18:37:23.318Z,101636.09
2023-09-06T18:39:52.617Z,101628.66
2023-09-06T18:42:19.686Z,101638.97
2023-09-06T18:44:46.481Z,101634.94
2023-09-06T18:47:13.613Z,101644.88
2023-09-06T18:49:43.357Z,101649.06
2023-09-06T18:52:15.532Z,101644.38
2023-09-06T18:54:42.751Z,101653.19
2023-09-06T18:57:13.491Z,101651.91
2023-09-06T18:59:43.431Z,101647.66
2023-09-06T19:02:16.016Z,101641.91
2023-09-06T19:04:44.116Z,101647.81
2023-09-06T19:07:13.533Z,101654.97
2023-09-06T19:09:40.190Z,101663.59
2023-09-06T19:12:16.805Z,101643.22
2023-09-06T19:14:49.566Z,101645.97
2023-09-06T19:17:19.326Z,101663.06
2023-09-06T19:19:46.085Z,101658.84
2023-09-06T19:22:13.089Z,101663.84
2023-09-06T19:24:41.080Z,101668.50
2023-09-06T19:27:07.915Z,101665.75
2023-09-06T19:29:36.682Z,101664.25
2023-09-06T19:32:05.081Z,101667.00
2023-09-06T19:34:47.174Z,101663.78
2023-09-06T19:37:22.951Z,101668.91
2023-09-06T19:39:50.827Z,101665.50
2023-09-06T19:42:20.162Z,101668.44
2023-09-06T19:44:47.150Z,101662.03
2023-09-06T19:47:20.615Z,101663.72
2023-09-06T19:49:49.737Z,101663.28
2023-09-06T19:52:21.965Z,101659.25
2023-09-06T19:54:48.639Z,101671.03
2023-09-06T19:57:34.019Z,101668.22
2023-09-06T20:00:22.835Z,101662.97
2023-09-06T20:02:54.192Z,101659.28
2023-09-06T20:05:21.313Z,101662.25
2023-09-06T20:07:47.988Z,101660.53
2023-09-06T20:10:23.978Z,101654.59
2023-09-06T20:12:50.682Z,101651.41
2023-09-06T20:15:20.526Z,101661.31
2023-09-06T20:17:47.416Z,101660.28
2023-09-06T20:20:21.863Z,101660.84
2023-09-06T20:22:50.850Z,101660.84
2023-09-06T20:25:20.875Z,101651.56
2023-09-06T20:27:47.625Z,101658.50
2023-09-06T20:30:22.001Z,101661.03
2023-09-06T20:32:49.038Z,101643.25
2023-09-06T20:35:25.369Z,101652.75
2023-09-06T20:37:52.163Z,101654.81
2023-09-06T20:40:45.791Z,101648.72
2023-09-06T20:43:13.655Z,101648.91
2023-09-06T20:45:52.981Z,101644.63
2023-09-06T20:48:23.303Z,101665.19
2023-09-06T20:51:02.910Z,101653.31
2023-09-06T20:53:45.042Z,101645.50
2023-09-06T20:56:12.190Z,101656.53
2023-09-06T20:58:41.992Z,101658.03
2023-09-06T21:01:26.321Z,101654.72
2023-09-06T21:03:57.620Z,101658.50
2023-09-06T21:06:26.864Z,101665.50
2023-09-06T21:08:55.861Z,101658.88
2023-09-06T21:11:24.109Z,101662.28
2023-09-06T21:13:55.066Z,101662.28
2023-09-06T21:16:21.895Z,101676.44
2023-09-06T21:18:52.214Z,101672.00
2023-09-06T21:21:28.044Z,101665.50
2023-09-06T21:24:04.203Z,101667.94
2023-09-06T21:26:34.305Z,101661.34
2023-09-06T21:29:03.355Z,101663.03
2023-09-06T21:31:51.975Z,101655.88
2023-09-06T21:34:22.682Z,101660.06
2023-09-06T21:37:00.825Z,101650.97
2023-09-06T21:39:31.740Z,101673.44
2023-09-06T21:45:08.797Z,101670.22
2023-09-06T21:47:48.141Z,101665.63
2023-09-06T21:50:17.058Z,101676.56
2023-09-06T21:52:47.765Z,101669.47
2023-09-06T21:55:25.289Z,101650.22
2023-09-06T21:58:03.246Z,101667.72
2023-09-06T22:00:58.889Z,101651.38
2023-09-06T22:03:26.111Z,101676.09
2023-09-06T22:05:53.064Z,101667.13
2023-09-06T22:08:25.773Z,101678.97
2023-09-06T22:10:52.925Z,101671.31
2023-09-06T22:13:24.192Z,101675.09
2023-09-06T22:15:51.948Z,101687.19
2023-09-06T22:18:19.187Z,101683.78
2023-09-06T22:20:49.124Z,101682.44
2023-09-06T22:23:18.135Z,101683.88
2023-09-06T22:26:11.069Z,101679.63
2023-09-06T22:28:49.930Z,101683.94
2023-09-06T22:31:18.003Z,101680.56
2023-09-06T22:33:48.271Z,101682.09
2023-09-06T22:36:15.080Z,101695.94
2023-09-06T22:38:54.499Z,101693.38
2023-09-06T22:41:21.928Z,101682.72
2023-09-06T22:43:56.880Z,101697.91
2023-09-06T22:46:48.972Z,101690.38
2023-09-06T22:49:16.113Z,101681.59
2023-09-06T22:51:52.022Z,101683.84
2023-09-06T22:54:18.925Z,101698.66
2023-09-06T22:56:51.960Z,101692.81
2023-09-06T22:59:19.161Z,101705.75
2023-09-06T23:01:59.308Z,101698.09
2023-09-06T23:04:29.290Z,101695.06
2023-09-06T23:06:56.117Z,101698.66
2023-09-06T23:09:22.964Z,101692.25
2023-09-06T23:12:02.535Z,101703.63
2023-09-06T23:14:29.338Z,101692.91
2023-09-06T23:16:59.112Z,101701.56
2023-09-06T23:19:37.876Z,101701.94
2023-09-06T23:22:08.314Z,101691.88
2023-09-06T23:24:39.935Z,101696.00
2023-09-06T23:27:08.477Z,101693.78
2023-09-06T23:29:40.657Z,101689.72
2023-09-06T23:32:08.115Z,101701.81
2023-09-06T23:34:36.489Z,101705.56
2023-09-06T23:37:07.235Z,101707.84
2023-09-06T23:39:34.686Z,101698.28
2023-09-06T23:42:10.778Z,101702.53
2023-09-06T23:44:52.183Z,101699.44
2023-09-06T23:47:19.472Z,101705.28
2023-09-06T23:49:51.964Z,101699.34
2023-09-06T23:52:18.887Z,101700.53
2023-09-06T23:54:48.444Z,101706.88
2023-09-06T23:57:18.741Z,101699.69
2023-09-06T23:59:53.223Z,101687.81
